createdAt,value
2022-11-08T00:02:22.406Z,11.42
2022-11-08T00:04:48.950Z,11.45
2022-11-08T00:07:33.975Z,11.48
2022-11-08T00:10:18.769Z,11.50
2022-11-08T00:13:03.465Z,11.53
2022-11-08T00:15:33.279Z,11.54
2022-11-08T00:17:59.677Z,11.57
2022-11-08T00:20:26.103Z,11.58
2022-11-08T00:22:52.553Z,11.60
2022-11-08T00:25:18.929Z,11.63
2022-11-08T00:27:45.351Z,11.63
2022-11-08T00:30:11.924Z,11.67
2022-11-08T00:32:38.330Z,11.67
2022-11-08T00:35:05.225Z,11.68
2022-11-08T00:37:31.655Z,11.68
2022-11-08T00:39:58.026Z,11.68
2022-11-08T00:42:24.529Z,11.70
2022-11-08T00:44:50.926Z,11.70
2022-11-08T00:47:17.346Z,11.70
2022-11-08T00:49:43.798Z,11.70
2022-11-08T00:52:10.211Z,11.72
2022-11-08T00:54:36.594Z,11.71
2022-11-08T00:57:03.112Z,11.72
2022-11-08T00:59:29.567Z,11.72
2022-11-08T01:01:56.119Z,11.72
2022-11-08T01:04:22.690Z,11.73
2022-11-08T01:06:49.114Z,11.71
2022-11-08T01:09:16.071Z,11.72
2022-11-08T01:11:46.325Z,11.73
2022-11-08T01:14:14.030Z,11.76
2022-11-08T01:16:41.151Z,11.77
2022-11-08T01:19:07.901Z,11.79
2022-11-08T01:21:34.798Z,11.81
2022-11-08T01:24:01.256Z,11.82
2022-11-08T01:26:29.309Z,11.82
2022-11-08T01:28:57.231Z,11.82
2022-11-08T01:31:26.013Z,11.84
2022-11-08T01:33:52.965Z,11.83
2022-11-08T01:36:25.888Z,11.86
2022-11-08T01:38:53.533Z,11.84
2022-11-08T01:41:22.078Z,11.83
2022-11-08T01:43:51.117Z,11.80
2022-11-08T01:46:29.833Z,11.80
2022-11-08T01:49:15.247Z,11.79
2022-11-08T01:52:02.857Z,11.83
2022-11-08T01:54:32.389Z,11.84
2022-11-08T01:57:02.681Z,11.86
2022-11-08T01:59:30.465Z,11.86
2022-11-08T02:01:57.117Z,11.87
2022-11-08T02:04:23.841Z,11.86
2022-11-08T02:06:51.453Z,11.88
2022-11-08T02:09:18.764Z,11.90
2022-11-08T02:11:47.506Z,11.94
2022-11-08T02:14:14.586Z,11.97
2022-11-08T02:16:41.086Z,11.96
2022-11-08T02:19:11.514Z,11.99
2022-11-08T02:21:51.906Z,11.96
2022-11-08T02:24:18.456Z,11.97
2022-11-08T02:26:46.290Z,11.97
2022-11-08T02:29:26.550Z,11.98
2022-11-08T02:31:53.907Z,11.95
2022-11-08T02:34:25.601Z,11.93
2022-11-08T02:36:52.285Z,11.94
2022-11-08T02:39:18.708Z,11.94
2022-11-08T02:41:45.126Z,11.97
2022-11-08T02:44:11.585Z,11.99
2022-11-08T02:46:38.058Z,11.98
2022-11-08T02:49:04.512Z,11.96
2022-11-08T02:51:30.941Z,11.92
2022-11-08T02:53:57.321Z,11.88
2022-11-08T02:56:23.774Z,11.88
2022-11-08T02:58:50.164Z,11.89
2022-11-08T03:01:16.638Z,11.85
2022-11-08T03:03:43.096Z,11.83
2022-11-08T03:06:09.565Z,11.83
2022-11-08T03:08:36.003Z,11.79
2022-11-08T03:11:02.446Z,11.78
2022-11-08T03:13:28.849Z,11.76
2022-11-08T03:15:55.236Z,11.73
2022-11-08T03:18:21.630Z,11.71
2022-11-08T03:20:48.042Z,11.67
2022-11-08T03:23:14.458Z,11.65
2022-11-08T03:25:40.834Z,11.65
2022-11-08T03:28:09.067Z,11.63
2022-11-08T03:30:36.436Z,11.60
2022-11-08T03:33:03.218Z,11.59
2022-11-08T03:35:29.676Z,11.55
2022-11-08T03:37:57.548Z,11.56
2022-11-08T03:40:25.565Z,11.53
2022-11-08T03:42:52.267Z,11.52
2022-11-08T03:45:18.677Z,11.51
2022-11-08T03:47:47.224Z,11.52
2022-11-08T03:50:15.463Z,11.51
2022-11-08T03:52:50.516Z,11.49
2022-11-08T03:55:18.848Z,11.49
2022-11-08T03:57:47.317Z,11.46
2022-11-08T04:00:16.728Z,11.42
2022-11-08T04:02:43.697Z,11.41
2022-11-08T04:05:11.971Z,11.42
2022-11-08T04:07:38.957Z,11.41
2022-11-08T04:10:06.908Z,11.38
2022-11-08T04:12:52.271Z,11.36
2022-11-08T04:15:22.308Z,11.33
2022-11-08T04:18:11.411Z,11.34
2022-11-08T04:21:03.856Z,11.32
2022-11-08T04:23:32.316Z,11.31
2022-11-08T04:26:01.249Z,11.31
2022-11-08T04:28:30.455Z,11.29
2022-11-08T04:31:02.954Z,11.29
2022-11-08T04:33:29.574Z,11.25
2022-11-08T04:35:56.058Z,11.24
2022-11-08T04:38:22.446Z,11.23
2022-11-08T04:40:48.906Z,11.21
2022-11-08T04:43:15.485Z,11.20
2022-11-08T04:45:41.912Z,11.17
2022-11-08T04:48:08.714Z,11.17
2022-11-08T04:50:36.114Z,11.17
2022-11-08T04:53:02.536Z,11.14
2022-11-08T04:55:28.961Z,11.11
2022-11-08T04:57:58.574Z,11.07
2022-11-08T05:00:25.434Z,11.06
2022-11-08T05:02:51.934Z,11.08
2022-11-08T05:05:18.506Z,11.06
2022-11-08T05:07:44.911Z,11.06
2022-11-08T05:10:11.367Z,11.04
2022-11-08T05:12:37.749Z,11.03
2022-11-08T05:15:04.486Z,11.00
2022-11-08T05:17:30.898Z,10.99
2022-11-08T05:20:15.963Z,10.98
2022-11-08T05:23:00.802Z,10.97
2022-11-08T05:25:27.168Z,10.95
2022-11-08T05:27:53.682Z,10.94
2022-11-08T05:30:20.112Z,10.90
2022-11-08T05:32:46.543Z,10.89
2022-11-08T05:35:12.937Z,10.88
2022-11-08T05:37:41.923Z,10.84
2022-11-08T05:40:09.143Z,10.82
2022-11-08T05:42:35.638Z,10.84
2022-11-08T05:45:05.247Z,10.89
2022-11-08T05:47:34.710Z,10.91
2022-11-08T05:50:01.117Z,10.91
2022-11-08T05:52:27.538Z,10.88
2022-11-08T05:54:54.358Z,10.89
2022-11-08T05:57:22.278Z,10.89
2022-11-08T05:59:48.754Z,10.89
2022-11-08T06:02:17.021Z,10.88
2022-11-08T06:04:43.901Z,10.90
2022-11-08T06:07:10.281Z,10.93
2022-11-08T06:09:36.694Z,10.96
2022-11-08T06:12:03.228Z,11.00
2022-11-08T06:14:29.760Z,11.02
2022-11-08T06:16:56.181Z,11.00
2022-11-08T06:19:22.606Z,11.02
2022-11-08T06:21:49.037Z,11.07
2022-11-08T06:24:17.362Z,11.15
2022-11-08T06:26:44.395Z,11.15
2022-11-08T06:29:10.848Z,11.16
2022-11-08T06:31:41.824Z,11.17
2022-11-08T06:34:09.493Z,11.18
2022-11-08T06:36:36.062Z,11.20
2022-11-08T06:39:02.619Z,11.25
2022-11-08T06:41:29.981Z,11.31
2022-11-08T06:43:56.595Z,11.35
2022-11-08T06:46:23.370Z,11.36
2022-11-08T06:48:49.974Z,11.31
2022-11-08T06:51:16.496Z,11.34
2022-11-08T06:53:43.152Z,11.32
2022-11-08T06:56:11.343Z,11.35
2022-11-08T06:58:38.149Z,11.31
2022-11-08T07:01:06.635Z,11.29
2022-11-08T07:03:33.588Z,11.32
2022-11-08T07:06:04.673Z,11.34
2022-11-08T07:08:32.474Z,11.36
2022-11-08T07:10:59.138Z,11.34
2022-11-08T07:13:25.573Z,11.35
2022-11-08T07:15:52.053Z,11.39
2022-11-08T07:18:19.850Z,11.43
2022-11-08T07:20:47.132Z,11.45
2022-11-08T07:23:14.043Z,11.47
2022-11-08T07:25:40.522Z,11.46
2022-11-08T07:28:12.683Z,11.46
2022-11-08T07:30:39.102Z,11.45
2022-11-08T07:33:05.519Z,11.46
2022-11-08T07:35:32.013Z,11.46
2022-11-08T07:37:58.497Z,11.49
2022-11-08T07:40:25.054Z,11.50
2022-11-08T07:45:38.606Z,11.51
2022-11-08T07:48:11.644Z,11.50
2022-11-08T07:50:40.274Z,11.55
2022-11-08T07:53:06.735Z,11.58
2022-11-08T07:55:36.712Z,11.64
2022-11-08T07:58:03.281Z,11.70
2022-11-08T08:00:30.648Z,11.74
2022-11-08T08:03:01.142Z,11.74
2022-11-08T08:05:29.766Z,11.81
2022-11-08T08:07:58.081Z,11.84
2022-11-08T08:10:25.108Z,11.85
2022-11-08T08:12:51.707Z,11.87
2022-11-08T08:15:18.242Z,11.93
2022-11-08T08:17:44.771Z,11.95
2022-11-08T08:20:11.932Z,11.96
2022-11-08T08:22:47.092Z,11.99
2022-11-08T08:25:14.571Z,12.02
2022-11-08T08:27:45.865Z,12.06
2022-11-08T08:30:12.559Z,12.12
2022-11-08T08:32:39.036Z,12.11
2022-11-08T08:35:05.760Z,12.12
2022-11-08T08:37:32.182Z,12.16
2022-11-08T08:39:58.612Z,12.20
2022-11-08T08:42:25.098Z,12.19
2022-11-08T08:44:51.556Z,12.16
2022-11-08T08:47:18.107Z,12.19
2022-11-08T08:49:44.513Z,12.20
2022-11-08T08:52:10.986Z,12.20
2022-11-08T08:54:37.395Z,12.17
2022-11-08T08:57:03.891Z,12.20
2022-11-08T09:02:16.964Z,12.27
2022-11-08T09:04:43.354Z,12.30
2022-11-08T09:07:09.837Z,12.34
2022-11-08T09:09:36.401Z,12.38
2022-11-08T09:12:03.357Z,12.42
2022-11-08T09:14:29.846Z,12.45
2022-11-08T09:16:56.941Z,12.44
2022-11-08T09:19:23.423Z,12.45
2022-11-08T09:21:50.236Z,12.50
2022-11-08T09:24:17.263Z,12.51
2022-11-08T09:26:43.717Z,12.53
2022-11-08T09:29:10.184Z,12.52
2022-11-08T09:31:36.673Z,12.53
2022-11-08T09:36:34.408Z,12.62
2022-11-08T09:39:00.916Z,12.61
2022-11-08T09:41:46.661Z,12.63
2022-11-08T09:44:26.350Z,12.66
2022-11-08T09:46:56.851Z,12.71
2022-11-08T09:49:37.802Z,12.72
2022-11-08T09:52:05.340Z,12.73
2022-11-08T09:54:38.396Z,12.73
2022-11-08T09:57:06.348Z,12.74
2022-11-08T09:59:32.829Z,12.75
2022-11-08T10:01:59.456Z,12.79
2022-11-08T10:04:28.826Z,12.82
2022-11-08T10:07:04.370Z,12.85
2022-11-08T10:10:08.459Z,12.86
2022-11-08T10:13:26.399Z,12.89
2022-11-08T10:16:06.873Z,12.92
2022-11-08T10:18:58.003Z,12.97
2022-11-08T10:21:55.239Z,13.04
2022-11-08T10:24:46.917Z,13.03
2022-11-08T10:27:34.265Z,13.02
2022-11-08T10:30:05.046Z,13.00
2022-11-08T10:32:34.724Z,13.03
2022-11-08T10:35:18.046Z,13.00
2022-11-08T10:37:44.865Z,13.02
2022-11-08T10:40:34.174Z,13.05
2022-11-08T10:43:29.883Z,13.08
2022-11-08T10:45:56.499Z,13.10
2022-11-08T10:48:23.123Z,13.14
2022-11-08T10:50:51.351Z,13.18
2022-11-08T10:53:30.460Z,13.17
2022-11-08T10:56:02.156Z,13.19
2022-11-08T10:58:37.437Z,13.21
2022-11-08T11:01:06.041Z,13.25
2022-11-08T11:03:33.101Z,13.33
2022-11-08T11:06:02.034Z,13.36
2022-11-08T11:08:28.850Z,13.38
2022-11-08T11:10:56.032Z,13.41
2022-11-08T11:15:58.866Z,13.48
2022-11-08T11:18:32.173Z,13.54
2022-11-08T11:21:00.921Z,13.56
2022-11-08T11:23:42.859Z,13.60
2022-11-08T11:26:19.767Z,13.62
2022-11-08T11:29:09.445Z,13.64
2022-11-08T11:31:38.399Z,13.70
2022-11-08T11:34:16.795Z,13.84
2022-11-08T11:36:47.958Z,13.84
2022-11-08T11:39:23.071Z,13.83
2022-11-08T11:42:02.753Z,13.86
2022-11-08T11:44:58.301Z,13.91
2022-11-08T11:47:31.411Z,13.92
2022-11-08T11:50:04.524Z,13.94
2022-11-08T11:52:31.669Z,13.95
2022-11-08T11:54:58.196Z,13.96
2022-11-08T11:57:27.308Z,14.03
2022-11-08T12:00:10.390Z,14.01
2022-11-08T12:03:18.247Z,14.00
2022-11-08T12:05:47.955Z,14.05
2022-11-08T12:08:34.203Z,14.02
2022-11-08T12:11:53.473Z,14.04
2022-11-08T12:14:38.731Z,14.01
2022-11-08T12:17:25.177Z,14.06
2022-11-08T12:20:27.325Z,14.09
2022-11-08T12:23:18.753Z,14.20
2022-11-08T12:26:02.393Z,14.24
2022-11-08T12:28:42.214Z,14.29
2022-11-08T12:31:26.812Z,14.35
2022-11-08T12:34:18.257Z,14.36
2022-11-08T12:36:50.791Z,14.38
2022-11-08T12:39:46.992Z,14.37
2022-11-08T12:42:16.293Z,14.33
2022-11-08T12:45:20.585Z,14.33
2022-11-08T12:48:13.527Z,14.32
2022-11-08T12:51:02.927Z,14.38
2022-11-08T12:54:00.360Z,14.43
2022-11-08T12:56:59.854Z,14.52
2022-11-08T12:59:28.386Z,14.64
2022-11-08T13:01:56.789Z,14.80
2022-11-08T13:04:38.598Z,14.80
2022-11-08T13:07:11.213Z,14.63
2022-11-08T13:10:03.995Z,14.56
2022-11-08T13:13:12.153Z,14.51
2022-11-08T13:16:08.936Z,14.49
2022-11-08T13:18:45.992Z,14.50
2022-11-08T13:21:34.285Z,14.55
2022-11-08T13:24:30.491Z,14.58
2022-11-08T13:27:33.534Z,14.64
2022-11-08T13:30:12.080Z,14.72
2022-11-08T13:32:59.308Z,14.78
2022-11-08T13:35:33.429Z,14.75
2022-11-08T13:38:40.151Z,14.75
2022-11-08T13:41:26.857Z,14.76
2022-11-08T13:43:55.200Z,14.76
2022-11-08T13:46:30.767Z,14.74
2022-11-08T13:49:05.072Z,14.71
2022-11-08T13:51:36.342Z,14.69
2022-11-08T13:54:20.987Z,14.67
2022-11-08T13:56:58.032Z,14.62
2022-11-08T13:59:33.586Z,14.62
2022-11-08T14:02:05.678Z,14.63
2022-11-08T14:04:33.589Z,14.64
2022-11-08T14:07:33.229Z,14.63
2022-11-08T14:10:17.656Z,14.65
2022-11-08T14:12:55.358Z,14.72
2022-11-08T14:15:34.037Z,14.76
2022-11-08T14:18:09.875Z,14.79
2022-11-08T14:20:46.702Z,14.78
2022-11-08T14:23:25.550Z,14.73
2022-11-08T14:25:56.081Z,14.69
2022-11-08T14:28:22.870Z,14.63
2022-11-08T14:30:50.847Z,14.59
2022-11-08T14:33:19.182Z,14.57
2022-11-08T14:35:59.338Z,14.55
2022-11-08T14:38:28.103Z,14.54
2022-11-08T14:40:58.561Z,14.55
2022-11-08T14:43:25.848Z,14.54
2022-11-08T14:45:53.520Z,14.51
2022-11-08T14:48:28.005Z,14.51
2022-11-08T14:51:02.522Z,14.51
2022-11-08T14:53:44.078Z,14.50
2022-11-08T14:56:24.325Z,14.47
2022-11-08T14:58:53.099Z,14.48
2022-11-08T15:01:23.867Z,14.43
2022-11-08T15:04:02.384Z,14.44
2022-11-08T15:06:41.554Z,14.42
2022-11-08T15:09:18.845Z,14.39
2022-11-08T15:11:52.913Z,14.37
2022-11-08T15:14:22.701Z,14.36
2022-11-08T15:16:52.124Z,14.36
2022-11-08T15:19:37.001Z,14.36
2022-11-08T15:22:26.473Z,14.34
2022-11-08T15:25:14.214Z,14.33
2022-11-08T15:27:51.096Z,14.27
2022-11-08T15:30:40.961Z,14.24
2022-11-08T15:33:24.213Z,14.19
2022-11-08T15:35:51.002Z,14.14
2022-11-08T15:38:38.342Z,14.17
2022-11-08T15:41:25.747Z,14.09
2022-11-08T15:43:54.971Z,14.14
2022-11-08T15:46:33.692Z,14.15
2022-11-08T15:49:00.236Z,14.13
2022-11-08T15:51:26.689Z,14.21
2022-11-08T15:53:53.171Z,14.28
2022-11-08T15:56:19.855Z,14.28
2022-11-08T15:58:46.512Z,14.32
2022-11-08T16:01:21.130Z,14.35
2022-11-08T16:03:48.386Z,14.37
2022-11-08T16:06:15.349Z,14.41
2022-11-08T16:08:42.101Z,14.48
2022-11-08T16:11:18.631Z,14.39
2022-11-08T16:13:45.258Z,14.40
2022-11-08T16:16:17.246Z,14.47
2022-11-08T16:18:44.054Z,14.47
2022-11-08T16:21:12.226Z,14.49
2022-11-08T16:23:39.844Z,14.56
2022-11-08T16:26:08.304Z,14.47
2022-11-08T16:28:38.095Z,14.48
2022-11-08T16:31:07.135Z,14.53
2022-11-08T16:33:35.676Z,14.55
2022-11-08T16:36:09.472Z,14.50
2022-11-08T16:38:37.448Z,14.52
2022-11-08T16:41:05.009Z,14.55
2022-11-08T16:43:31.937Z,14.46
2022-11-08T16:46:05.255Z,14.50
2022-11-08T16:48:33.079Z,14.53
2022-11-08T16:51:03.596Z,14.52
2022-11-08T16:53:30.117Z,14.53
2022-11-08T16:55:57.190Z,14.55
2022-11-08T16:58:24.187Z,14.56
2022-11-08T17:00:51.256Z,14.54
2022-11-08T17:03:24.310Z,14.49
2022-11-08T17:05:51.161Z,14.53
2022-11-08T17:08:17.882Z,14.52
2022-11-08T17:10:44.586Z,14.69
2022-11-08T17:13:15.517Z,14.62
2022-11-08T17:15:42.496Z,14.66
2022-11-08T17:18:14.435Z,14.60
2022-11-08T17:20:41.656Z,14.54
2022-11-08T17:23:09.004Z,14.57
2022-11-08T17:25:37.240Z,14.55
2022-11-08T17:28:04.448Z,14.56
2022-11-08T17:30:31.064Z,14.58
2022-11-08T17:32:57.719Z,14.52
2022-11-08T17:35:24.604Z,14.50
2022-11-08T17:37:51.003Z,14.49
2022-11-08T17:40:17.523Z,14.45
2022-11-08T17:42:45.224Z,14.40
2022-11-08T17:45:11.886Z,14.43
2022-11-08T17:47:39.087Z,14.43
2022-11-08T17:50:06.546Z,14.48
2022-11-08T17:52:33.282Z,14.47
2022-11-08T17:54:59.718Z,14.41
2022-11-08T17:57:26.207Z,14.41
2022-11-08T17:59:52.685Z,14.40
2022-11-08T18:02:19.315Z,14.47
2022-11-08T18:04:45.960Z,14.58
2022-11-08T18:07:12.580Z,14.48
2022-11-08T18:09:39.145Z,14.45
2022-11-08T18:12:05.838Z,14.45
2022-11-08T18:14:32.363Z,14.52
2022-11-08T18:16:59.768Z,14.48
2022-11-08T18:19:26.544Z,14.45
2022-11-08T18:21:52.987Z,14.47
2022-11-08T18:24:19.567Z,14.51
2022-11-08T18:26:46.024Z,14.49
2022-11-08T18:29:12.450Z,14.61
2022-11-08T18:31:39.067Z,14.56
2022-11-08T18:34:05.532Z,14.52
2022-11-08T18:36:32.250Z,14.54
2022-11-08T18:39:02.712Z,14.55
2022-11-08T18:41:31.854Z,14.58
2022-11-08T18:43:59.574Z,14.50
2022-11-08T18:46:28.843Z,14.51
2022-11-08T18:48:55.599Z,14.46
2022-11-08T18:51:23.310Z,14.43
2022-11-08T18:53:52.486Z,14.38
2022-11-08T18:56:19.587Z,14.39
2022-11-08T18:58:49.118Z,14.40
2022-11-08T19:01:16.164Z,14.45
2022-11-08T19:03:43.323Z,14.47
2022-11-08T19:06:09.854Z,14.50
2022-11-08T19:08:37.118Z,14.49
2022-11-08T19:11:09.335Z,14.47
2022-11-08T19:13:38.038Z,14.45
2022-11-08T19:16:18.303Z,14.49
2022-11-08T19:18:49.702Z,14.51
2022-11-08T19:21:22.060Z,14.50
2022-11-08T19:23:49.335Z,14.51
2022-11-08T19:26:23.591Z,14.59
2022-11-08T19:28:53.328Z,14.59
2022-11-08T19:31:22.138Z,14.61
2022-11-08T19:33:51.098Z,14.65
2022-11-08T19:36:22.895Z,14.63
2022-11-08T19:38:50.100Z,14.60
2022-11-08T19:41:20.129Z,14.56
2022-11-08T19:43:47.576Z,14.58
2022-11-08T19:46:16.445Z,14.58
2022-11-08T19:48:44.981Z,14.60
2022-11-08T19:51:23.859Z,14.64
2022-11-08T19:53:54.008Z,14.66
2022-11-08T19:56:29.190Z,14.67
2022-11-08T19:59:04.727Z,14.64
2022-11-08T20:01:40.067Z,14.65
2022-11-08T20:04:09.107Z,14.65
2022-11-08T20:06:36.687Z,14.62
2022-11-08T20:09:05.611Z,14.63
2022-11-08T20:11:35.942Z,14.57
2022-11-08T20:14:04.181Z,14.56
2022-11-08T20:16:35.924Z,14.52
2022-11-08T20:19:06.046Z,14.45
2022-11-08T20:21:33.279Z,14.38
2022-11-08T20:24:00.489Z,14.35
2022-11-08T20:26:27.481Z,14.36
2022-11-08T20:28:56.674Z,14.32
2022-11-08T20:31:24.703Z,14.39
2022-11-08T20:33:53.127Z,14.38
2022-11-08T20:36:22.370Z,14.34
2022-11-08T20:38:49.490Z,14.27
2022-11-08T20:41:17.733Z,14.25
2022-11-08T20:43:46.373Z,14.24
2022-11-08T20:46:18.348Z,14.26
2022-11-08T20:48:50.629Z,14.31
2022-11-08T20:51:19.103Z,14.39
2022-11-08T20:53:46.300Z,14.47
2022-11-08T20:56:16.111Z,14.38
2022-11-08T20:58:43.900Z,14.35
2022-11-08T21:01:13.663Z,14.27
2022-11-08T21:03:40.993Z,14.24
2022-11-08T21:06:09.802Z,14.18
2022-11-08T21:11:24.782Z,14.22
2022-11-08T21:13:51.687Z,14.20
2022-11-08T21:16:59.383Z,14.18
2022-11-08T21:19:06.336Z,14.20
2022-11-08T21:21:33.251Z,14.20
2022-11-08T21:23:59.931Z,14.21
2022-11-08T21:26:26.652Z,14.21
2022-11-08T21:28:53.719Z,14.17
2022-11-08T21:31:20.347Z,14.18
2022-11-08T21:33:46.899Z,14.20
2022-11-08T21:36:13.842Z,14.22
2022-11-08T21:38:40.617Z,14.27
2022-11-08T21:41:09.772Z,14.27
2022-11-08T21:43:37.963Z,14.22
2022-11-08T21:46:13.354Z,14.20
2022-11-08T21:48:39.737Z,14.26
2022-11-08T21:51:06.408Z,14.26
2022-11-08T21:53:32.935Z,14.24
2022-11-08T21:55:59.359Z,14.21
2022-11-08T21:58:25.767Z,14.26
2022-11-08T22:00:52.702Z,14.30
2022-11-08T22:03:19.480Z,14.24
2022-11-08T22:05:46.269Z,14.18
2022-11-08T22:08:12.638Z,14.17
2022-11-08T22:10:39.088Z,14.15
2022-11-08T22:13:05.504Z,14.12
2022-11-08T22:15:31.938Z,14.13
2022-11-08T22:18:14.994Z,14.15
2022-11-08T22:21:06.514Z,14.18
2022-11-08T22:23:34.084Z,14.18
2022-11-08T22:26:00.836Z,14.20
2022-11-08T22:28:27.567Z,14.19
2022-11-08T22:30:54.071Z,14.21
2022-11-08T22:33:20.899Z,14.24
2022-11-08T22:35:47.996Z,14.22
2022-11-08T22:38:16.179Z,14.22
2022-11-08T22:40:45.177Z,14.24
2022-11-08T22:43:12.082Z,14.22
2022-11-08T22:45:42.831Z,14.25
2022-11-08T22:48:10.426Z,14.24
2022-11-08T22:50:38.016Z,14.25
2022-11-08T22:53:05.006Z,14.26
2022-11-08T22:55:31.619Z,14.22
2022-11-08T22:57:58.103Z,14.23
2022-11-08T23:00:24.575Z,14.23
2022-11-08T23:02:51.027Z,14.21
2022-11-08T23:05:17.435Z,14.21
2022-11-08T23:07:43.842Z,14.21
2022-11-08T23:10:10.654Z,14.18
2022-11-08T23:12:55.680Z,14.20
2022-11-08T23:15:40.527Z,14.22
2022-11-08T23:18:07.028Z,14.20
2022-11-08T23:20:52.323Z,14.21
2022-11-08T23:23:38.148Z,14.24
2022-11-08T23:26:04.592Z,14.23
2022-11-08T23:28:49.505Z,14.22
2022-11-08T23:31:34.727Z,14.19
2022-11-08T23:34:02.535Z,14.21
2022-11-08T23:36:29.072Z,14.23
2022-11-08T23:38:56.644Z,14.25
2022-11-08T23:41:42.904Z,14.23
2022-11-08T23:44:24.772Z,14.19
2022-11-08T23:47:01.368Z,14.18
2022-11-08T23:49:28.325Z,14.20
2022-11-08T23:51:54.945Z,14.17
2022-11-08T23:54:21.494Z,14.17
2022-11-08T23:56:48.260Z,14.15
2022-11-08T23:59:15.652Z,14.17
